Time;durP1;ratioP1;P1;durP2;ratioP2;P2;SDS_P1;SDS_P2;PMS_P1;PMS_P2;Temp;Humidity;BMP_temperature;BMP_pressure;BME280_temperature;BME280_humidity;BME280_pressure;Samples;Min_cycle;Max_cycle;Signal;HPM_P1;HPM_P2
2024/01/18 00:02:58;;;;;;;50.40;23.10;;;;;;;;;;10375755;28;20229;-70
2024/01/18 00:07:58;;;;;;;41.10;20.03;;;;;;;;;;10377525;28;20237;-70
2024/01/18 00:12:58;;;;;;;17.53;10.47;;;;;;;;;;10378156;28;20228;-71
2024/01/18 00:17:59;;;;;;;16.70;10.97;;;;;;;;;;10376130;28;20687;-70
2024/01/18 00:22:59;;;;;;;23.03;12.80;;;;;;;;;;10374989;28;20582;-71
2024/01/18 00:27:59;;;;;;;18.13;11.47;;;;;;;;;;10374780;28;20478;-70
2024/01/18 00:32:59;;;;;;;22.10;11.83;;;;;;;;;;10374604;28;20232;-71
2024/01/18 00:37:59;;;;;;;20.23;11.17;;;;;;;;;;10372665;28;20208;-70
2024/01/18 00:42:59;;;;;;;17.90;10.53;;;;;;;;;;10374859;28;20192;-70
2024/01/18 00:48:00;;;;;;;13.53;9.00;;;;;;;;;;10374870;28;20576;-70
2024/01/18 00:53:00;;;;;;;12.77;7.67;;;;;;;;;;10374688;28;21020;-70
2024/01/18 00:58:00;;;;;;;11.47;7.87;;;;;;;;;;10373160;28;20224;-70
2024/01/18 01:03:01;;;;;;;14.97;8.30;;;;;;;;;;10375109;28;20197;-70
2024/01/18 01:08:01;;;;;;;16.13;9.23;;;;;;;;;;10375251;28;20250;-68
2024/01/18 01:13:01;;;;;;;14.53;8.17;;;;;;;;;;10375146;28;20579;-69
2024/01/18 01:18:02;;;;;;;8.87;6.27;;;;;;;;;;10373210;28;20345;-69
2024/01/18 01:23:03;;;;;;;10.40;5.67;;;;;;;;;;10375452;28;20251;-69
2024/01/18 01:28:04;;;;;;;6.90;4.77;;;;;;;;;;10375415;28;20219;-69
2024/01/18 01:33:04;;;;;;;6.90;4.77;;;;;;;;;;10375576;28;20627;-69
2024/01/18 01:38:04;;;;;;;7.40;4.93;;;;;;;;;;10372753;28;20201;-67
2024/01/18 01:43:04;;;;;;;9.47;6.63;;;;;;;;;;10375193;28;20670;-68
2024/01/18 01:48:06;;;;;;;6.80;5.57;;;;;;;;;;10375380;28;20278;-67
2024/01/18 01:53:07;;;;;;;9.50;5.57;;;;;;;;;;10372609;28;20217;-69
2024/01/18 01:58:08;;;;;;;13.17;7.57;;;;;;;;;;10374506;28;20749;-68
2024/01/18 02:03:09;;;;;;;12.20;8.07;;;;;;;;;;10373386;28;20595;-69
2024/01/18 02:08:09;;;;;;;10.60;7.10;;;;;;;;;;10373807;28;20237;-68
2024/01/18 02:13:10;;;;;;;12.47;8.00;;;;;;;;;;10369556;28;20715;-68
2024/01/18 02:18:10;;;;;;;14.03;8.70;;;;;;;;;;10373827;28;20213;-68
2024/01/18 02:23:11;;;;;;;16.30;10.30;;;;;;;;;;10373093;28;20203;-68
2024/01/18 02:28:11;;;;;;;18.90;12.10;;;;;;;;;;10373265;28;20207;-69
2024/01/18 02:33:11;;;;;;;21.33;12.73;;;;;;;;;;10371035;28;20300;-69
2024/01/18 02:38:12;;;;;;;22.33;12.80;;;;;;;;;;10371649;28;20201;-69
2024/01/18 02:43:12;;;;;;;23.77;14.33;;;;;;;;;;10371512;28;20535;-69
2024/01/18 02:48:12;;;;;;;23.00;13.37;;;;;;;;;;10370003;28;21216;-70
2024/01/18 02:53:13;;;;;;;23.17;13.17;;;;;;;;;;10366879;28;20225;-70
2024/01/18 02:58:13;;;;;;;24.38;13.32;;;;;;;;;;10368737;28;20205;-70
2024/01/18 03:03:14;;;;;;;25.90;13.90;;;;;;;;;;10369007;28;20196;-70
2024/01/18 03:08:14;;;;;;;25.20;14.57;;;;;;;;;;10369649;28;20307;-70
2024/01/18 03:13:14;;;;;;;30.57;17.73;;;;;;;;;;10367636;28;20774;-70
2024/01/18 03:18:14;;;;;;;31.70;17.47;;;;;;;;;;10369785;28;20217;-70
2024/01/18 03:23:15;;;;;;;23.90;13.33;;;;;;;;;;10370060;28;20225;-69
2024/01/18 03:28:15;;;;;;;15.67;9.80;;;;;;;;;;10368822;28;20220;-69
2024/01/18 03:33:15;;;;;;;15.37;9.87;;;;;;;;;;10370279;28;20225;-70
2024/01/18 03:38:15;;;;;;;21.63;12.60;;;;;;;;;;10370387;28;20219;-70
2024/01/18 03:43:16;;;;;;;19.03;11.80;;;;;;;;;;10370835;28;20221;-70
2024/01/18 03:48:16;;;;;;;22.07;12.70;;;;;;;;;;10368847;28;20612;-69
2024/01/18 03:53:16;;;;;;;22.23;13.07;;;;;;;;;;10371058;28;20228;-69
2024/01/18 03:58:17;;;;;;;17.47;10.03;;;;;;;;;;10370997;28;20216;-69
2024/01/18 04:03:17;;;;;;;14.35;9.25;;;;;;;;;;10371510;28;20205;-70
2024/01/18 04:08:17;;;;;;;17.50;10.70;;;;;;;;;;10367980;28;20331;-69
2024/01/18 04:13:18;;;;;;;18.40;10.73;;;;;;;;;;10370444;28;20278;-69
2024/01/18 04:18:18;;;;;;;16.90;9.97;;;;;;;;;;10370439;28;20304;-70
2024/01/18 04:23:19;;;;;;;18.87;11.47;;;;;;;;;;10370003;28;20243;-69
2024/01/18 04:28:19;;;;;;;20.90;10.53;;;;;;;;;;10368728;28;20217;-70
2024/01/18 04:33:20;;;;;;;19.57;11.93;;;;;;;;;;10370267;28;20592;-70
2024/01/18 04:38:20;;;;;;;20.10;12.57;;;;;;;;;;10370754;28;20288;-70
2024/01/18 04:43:20;;;;;;;21.00;13.07;;;;;;;;;;10370080;28;20236;-69
2024/01/18 04:48:22;;;;;;;24.67;14.53;;;;;;;;;;10374689;28;20213;-70
2024/01/18 04:53:22;;;;;;;29.00;13.27;;;;;;;;;;10377473;28;20249;-70
2024/01/18 04:58:23;;;;;;;25.07;13.40;;;;;;;;;;10378012;28;20735;-69
2024/01/18 05:03:23;;;;;;;20.13;11.73;;;;;;;;;;10377761;28;20320;-69
2024/01/18 05:08:23;;;;;;;28.80;15.23;;;;;;;;;;10377092;28;20499;-69
2024/01/18 05:13:23;;;;;;;25.63;14.57;;;;;;;;;;10378420;28;20545;-70
2024/01/18 05:18:24;;;;;;;25.27;13.87;;;;;;;;;;10377525;28;20221;-70
2024/01/18 05:23:24;;;;;;;28.30;14.37;;;;;;;;;;10378308;28;20228;-70
2024/01/18 05:28:24;;;;;;;27.57;14.60;;;;;;;;;;10377522;28;20244;-69
2024/01/18 05:33:24;;;;;;;27.53;15.10;;;;;;;;;;10377003;28;20313;-70
2024/01/18 05:38:24;;;;;;;28.40;14.07;;;;;;;;;;10377206;28;20206;-70
2024/01/18 05:43:24;;;;;;;25.03;13.87;;;;;;;;;;10376581;28;20197;-70
2024/01/18 05:48:25;;;;;;;29.42;15.20;;;;;;;;;;10376172;28;20604;-70
2024/01/18 05:53:25;;;;;;;28.73;15.80;;;;;;;;;;10376756;28;20228;-70
2024/01/18 05:58:26;;;;;;;34.03;15.10;;;;;;;;;;10374175;28;20625;-69
2024/01/18 06:03:27;;;;;;;24.03;13.90;;;;;;;;;;10373291;28;20193;-69
2024/01/18 06:08:27;;;;;;;25.67;13.83;;;;;;;;;;10372779;28;20244;-69
2024/01/18 06:13:27;;;;;;;27.77;15.13;;;;;;;;;;10371579;28;20294;-69
2024/01/18 06:18:27;;;;;;;35.97;16.33;;;;;;;;;;10373140;28;20209;-69
2024/01/18 06:23:28;;;;;;;30.80;17.17;;;;;;;;;;10373155;28;20537;-69
2024/01/18 06:28:28;;;;;;;32.67;16.27;;;;;;;;;;10372969;28;20217;-69
2024/01/18 06:33:28;;;;;;;35.10;18.17;;;;;;;;;;10372965;28;20229;-69
2024/01/18 06:38:29;;;;;;;34.23;17.73;;;;;;;;;;10373333;28;20300;-69
2024/01/18 06:43:29;;;;;;;33.23;18.00;;;;;;;;;;10372986;28;20336;-68
2024/01/18 06:48:29;;;;;;;38.03;18.87;;;;;;;;;;10372895;28;20217;-69
2024/01/18 06:53:29;;;;;;;35.47;18.33;;;;;;;;;;10372897;28;20304;-69
2024/01/18 06:58:29;;;;;;;32.30;15.90;;;;;;;;;;10372236;28;20216;-69
2024/01/18 07:03:30;;;;;;;30.33;15.97;;;;;;;;;;10372803;28;21674;-69
2024/01/18 07:08:31;;;;;;;26.13;12.87;;;;;;;;;;10372435;28;20315;-68
2024/01/18 07:13:31;;;;;;;26.27;13.23;;;;;;;;;;10372035;28;20275;-69
2024/01/18 07:18:31;;;;;;;26.90;13.40;;;;;;;;;;10372759;28;20204;-68
2024/01/18 07:23:32;;;;;;;23.30;12.37;;;;;;;;;;10372224;28;20189;-68
2024/01/18 07:28:32;;;;;;;23.10;12.87;;;;;;;;;;10372596;28;20601;-68
2024/01/18 07:33:33;;;;;;;32.83;16.63;;;;;;;;;;10372179;28;20697;-69
2024/01/18 07:38:33;;;;;;;34.63;16.63;;;;;;;;;;10371516;28;20592;-68
2024/01/18 07:43:33;;;;;;;39.33;18.83;;;;;;;;;;10372106;28;20189;-68
2024/01/18 07:48:33;;;;;;;34.23;18.13;;;;;;;;;;10372305;28;20233;-68
2024/01/18 07:53:33;;;;;;;30.53;16.03;;;;;;;;;;10371835;28;20692;-68
2024/01/18 07:58:34;;;;;;;32.03;16.93;;;;;;;;;;10371284;28;20205;-69
2024/01/18 08:03:34;;;;;;;30.33;16.37;;;;;;;;;;10372097;28;20308;-68
2024/01/18 08:08:34;;;;;;;31.13;15.60;;;;;;;;;;10371644;28;20235;-68
2024/01/18 08:13:34;;;;;;;26.77;15.07;;;;;;;;;;10372069;28;20220;-68
2024/01/18 08:18:35;;;;;;;25.47;13.47;;;;;;;;;;10371533;28;20263;-68
2024/01/18 08:23:35;;;;;;;24.97;13.73;;;;;;;;;;10378582;28;20181;-69
2024/01/18 08:28:35;;;;;;;28.77;15.43;;;;;;;;;;10380826;28;20686;-69
2024/01/18 08:33:35;;;;;;;27.37;15.77;;;;;;;;;;10375850;28;20220;-68
2024/01/18 08:38:35;;;;;;;28.23;14.13;;;;;;;;;;10376119;28;20209;-68
2024/01/18 08:43:36;;;;;;;15.37;8.30;;;;;;;;;;10376530;28;20259;-68
2024/01/18 08:48:36;;;;;;;12.93;7.10;;;;;;;;;;10376759;28;20240;-69
2024/01/18 08:53:36;;;;;;;16.33;8.48;;;;;;;;;;10376282;28;20213;-68
2024/01/18 08:58:37;;;;;;;11.77;7.50;;;;;;;;;;10375824;28;20244;-68
2024/01/18 09:03:37;;;;;;;13.80;8.63;;;;;;;;;;10374264;28;20193;-69
2024/01/18 09:08:37;;;;;;;15.10;8.53;;;;;;;;;;10372704;28;20324;-69
2024/01/18 09:13:37;;;;;;;15.10;7.73;;;;;;;;;;10373933;28;20213;-68
2024/01/18 09:18:38;;;;;;;12.17;8.23;;;;;;;;;;10372964;28;20710;-68
2024/01/18 09:23:38;;;;;;;16.97;9.73;;;;;;;;;;10373602;28;20288;-68
2024/01/18 09:28:38;;;;;;;19.93;11.73;;;;;;;;;;10373014;28;20643;-69
2024/01/18 09:33:39;;;;;;;12.20;7.40;;;;;;;;;;10371910;28;20213;-68
2024/01/18 09:38:39;;;;;;;11.87;7.47;;;;;;;;;;10371898;28;20224;-69
2024/01/18 09:43:39;;;;;;;12.93;6.33;;;;;;;;;;10372087;28;20248;-69
2024/01/18 09:48:41;;;;;;;6.70;4.53;;;;;;;;;;10372687;28;20227;-68
2024/01/18 09:53:47;;;;;;;10.20;5.80;;;;;;;;;;10369325;28;20224;-68
2024/01/18 09:58:48;;;;;;;9.37;5.73;;;;;;;;;;10375154;28;20745;-68
2024/01/18 10:03:49;;;;;;;14.93;7.23;;;;;;;;;;10374408;28;20209;-69
2024/01/18 10:08:50;;;;;;;13.53;6.20;;;;;;;;;;10373153;28;20315;-68
2024/01/18 10:13:51;;;;;;;9.73;6.13;;;;;;;;;;10372411;28;20217;-69
2024/01/18 10:18:51;;;;;;;8.10;5.37;;;;;;;;;;10372543;28;20211;-68
2024/01/18 10:23:53;;;;;;;8.97;5.37;;;;;;;;;;10374220;28;20281;-68
2024/01/18 10:28:53;;;;;;;9.10;4.97;;;;;;;;;;10374343;28;20243;-68
2024/01/18 10:33:54;;;;;;;10.77;5.87;;;;;;;;;;10373136;28;20213;-68
2024/01/18 10:38:55;;;;;;;14.67;7.33;;;;;;;;;;10372361;28;20576;-67
2024/01/18 10:43:56;;;;;;;23.83;10.40;;;;;;;;;;10372739;28;20185;-68
2024/01/18 10:48:56;;;;;;;14.63;7.77;;;;;;;;;;10370622;28;20217;-67
2024/01/18 10:53:57;;;;;;;13.60;7.40;;;;;;;;;;10374122;28;20595;-67
2024/01/18 10:58:57;;;;;;;9.63;5.77;;;;;;;;;;10374587;28;20283;-67
2024/01/18 11:03:58;;;;;;;9.87;5.40;;;;;;;;;;10372594;28;20727;-66
2024/01/18 11:08:58;;;;;;;9.23;5.27;;;;;;;;;;10372637;28;20244;-68
2024/01/18 11:13:59;;;;;;;11.87;6.13;;;;;;;;;;10374815;28;20367;-67
2024/01/18 11:19:00;;;;;;;10.23;5.23;;;;;;;;;;10374314;28;20460;-68
2024/01/18 11:24:04;;;;;;;10.43;5.47;;;;;;;;;;10370823;28;20264;-67
2024/01/18 11:29:14;;;;;;;9.07;5.63;;;;;;;;;;10374878;28;20213;-67
2024/01/18 11:34:34;;;;;;;11.27;5.97;;;;;;;;;;10370521;28;20249;-67
2024/01/18 11:39:47;;;;;;;9.63;5.87;;;;;;;;;;10374455;28;20228;-68
2024/01/18 11:44:48;;;;;;;10.60;5.73;;;;;;;;;;10371302;28;20277;-67
2024/01/18 11:49:49;;;;;;;11.37;5.97;;;;;;;;;;10370850;28;20216;-67
2024/01/18 11:54:50;;;;;;;10.97;5.90;;;;;;;;;;10375276;28;20296;-67
2024/01/18 11:59:51;;;;;;;11.47;6.47;;;;;;;;;;10379913;28;20579;-68
2024/01/18 12:04:52;;;;;;;9.80;6.37;;;;;;;;;;10380363;28;20193;-68
2024/01/18 12:09:52;;;;;;;13.07;6.40;;;;;;;;;;10381879;28;20268;-68
2024/01/18 12:14:52;;;;;;;14.13;7.35;;;;;;;;;;10381677;28;20483;-68
2024/01/18 12:19:53;;;;;;;15.67;8.80;;;;;;;;;;10381173;28;20212;-68
2024/01/18 12:24:53;;;;;;;16.37;8.77;;;;;;;;;;10381369;28;20207;-67
2024/01/18 12:29:53;;;;;;;12.93;6.90;;;;;;;;;;10381225;28;20221;-67
2024/01/18 12:34:57;;;;;;;12.60;7.20;;;;;;;;;;10381371;28;20304;-67
2024/01/18 12:39:57;;;;;;;12.33;7.33;;;;;;;;;;10379005;28;20209;-68
2024/01/18 12:44:57;;;;;;;16.77;8.67;;;;;;;;;;10377926;28;20190;-68
2024/01/18 12:49:58;;;;;;;18.80;10.80;;;;;;;;;;10377789;28;20240;-68
2024/01/18 12:54:59;;;;;;;23.23;13.47;;;;;;;;;;10377181;28;20722;-67
2024/01/18 13:00:03;;;;;;;34.90;18.17;;;;;;;;;;10376042;28;20361;-67
2024/01/18 13:05:03;;;;;;;36.00;18.97;;;;;;;;;;10376371;28;20671;-68
2024/01/18 13:10:03;;;;;;;31.30;17.53;;;;;;;;;;10377231;28;20248;-68
2024/01/18 13:15:04;;;;;;;33.37;17.60;;;;;;;;;;10376948;28;20213;-68
2024/01/18 13:20:04;;;;;;;39.00;18.00;;;;;;;;;;10375480;28;20559;-68
2024/01/18 13:25:05;;;;;;;36.90;20.10;;;;;;;;;;10374390;28;20245;-69
2024/01/18 13:30:06;;;;;;;37.65;20.30;;;;;;;;;;10375786;28;20189;-68
2024/01/18 13:35:09;;;;;;;35.77;19.93;;;;;;;;;;10377035;28;20718;-68
2024/01/18 13:40:10;;;;;;;38.70;19.90;;;;;;;;;;10375323;28;20232;-68
2024/01/18 13:45:10;;;;;;;39.00;20.47;;;;;;;;;;10372518;28;20196;-68
2024/01/18 13:50:11;;;;;;;34.87;17.67;;;;;;;;;;10377712;28;20252;-68
2024/01/18 13:55:11;;;;;;;34.60;18.43;;;;;;;;;;10376245;28;20267;-68
2024/01/18 14:00:11;;;;;;;32.90;16.33;;;;;;;;;;10376432;28;20864;-68
2024/01/18 14:05:12;;;;;;;31.53;17.87;;;;;;;;;;10376867;28;20280;-68
2024/01/18 14:10:14;;;;;;;34.70;18.97;;;;;;;;;;10376596;28;20244;-68
2024/01/18 14:15:14;;;;;;;33.63;19.07;;;;;;;;;;10376451;28;20245;-69
2024/01/18 14:20:14;;;;;;;31.23;18.13;;;;;;;;;;10374705;28;20230;-69
2024/01/18 14:25:14;;;;;;;31.87;18.03;;;;;;;;;;10376488;28;21138;-69
2024/01/18 14:30:15;;;;;;;28.77;18.27;;;;;;;;;;10371731;28;20216;-68
2024/01/18 14:35:15;;;;;;;34.83;18.63;;;;;;;;;;10372007;28;20217;-67
2024/01/18 14:40:23;;;;;;;35.63;20.13;;;;;;;;;;10593139;27;20560;-66
2024/01/18 14:45:23;;;;;;;38.70;22.90;;;;;;;;;;10571654;28;20310;-68
2024/01/18 14:50:23;;;;;;;40.40;21.60;;;;;;;;;;10568201;28;20244;-69
2024/01/18 14:55:23;;;;;;;41.33;22.87;;;;;;;;;;10572063;28;20227;-69
2024/01/18 15:00:23;;;;;;;42.30;23.53;;;;;;;;;;10569591;28;20276;-68
2024/01/18 15:05:24;;;;;;;41.90;23.37;;;;;;;;;;10569256;28;20217;-69
2024/01/18 15:10:24;;;;;;;44.87;24.57;;;;;;;;;;10570435;28;20182;-68
2024/01/18 15:15:25;;;;;;;60.43;29.40;;;;;;;;;;10566615;28;20246;-68
2024/01/18 15:20:25;;;;;;;59.37;30.57;;;;;;;;;;10570292;28;20186;-67
2024/01/18 15:25:25;;;;;;;52.60;26.37;;;;;;;;;;10566924;28;20472;-68
2024/01/18 15:30:25;;;;;;;51.07;27.73;;;;;;;;;;10566893;28;20187;-68
2024/01/18 15:35:27;;;;;;;47.13;26.23;;;;;;;;;;10569039;28;20259;-68
2024/01/18 15:40:27;;;;;;;46.87;25.13;;;;;;;;;;10557681;28;20494;-67
2024/01/18 15:45:27;;;;;;;47.60;25.33;;;;;;;;;;10546341;28;20199;-68
2024/01/18 15:50:28;;;;;;;49.60;25.57;;;;;;;;;;10526824;28;20214;-68
2024/01/18 15:55:28;;;;;;;49.30;23.60;;;;;;;;;;10518530;28;20716;-68
2024/01/18 16:00:28;;;;;;;65.03;29.50;;;;;;;;;;10518910;28;20321;-69
2024/01/18 16:05:28;;;;;;;57.33;29.83;;;;;;;;;;10518356;28;20207;-68
2024/01/18 16:10:28;;;;;;;49.67;25.50;;;;;;;;;;10518643;28;20187;-69
2024/01/18 16:15:29;;;;;;;43.93;24.00;;;;;;;;;;10518458;28;20340;-68
2024/01/18 16:20:29;;;;;;;54.80;25.23;;;;;;;;;;10517616;28;20544;-68
2024/01/18 16:25:29;;;;;;;66.37;31.27;;;;;;;;;;10514067;28;20372;-69
2024/01/18 16:30:30;;;;;;;45.23;24.37;;;;;;;;;;10517011;28;20198;-68
2024/01/18 16:35:30;;;;;;;46.13;24.03;;;;;;;;;;10516273;28;20215;-69
2024/01/18 16:40:31;;;;;;;47.50;23.43;;;;;;;;;;10516358;28;20265;-68
2024/01/18 16:45:31;;;;;;;43.83;22.07;;;;;;;;;;10512519;28;20213;-68
2024/01/18 16:50:32;;;;;;;86.10;45.73;;;;;;;;;;10516255;28;20186;-68
2024/01/18 16:55:34;;;;;;;51.50;26.37;;;;;;;;;;10516230;28;20198;-67
2024/01/18 17:00:34;;;;;;;48.53;24.20;;;;;;;;;;10514236;28;20194;-68
2024/01/18 17:05:34;;;;;;;47.47;21.93;;;;;;;;;;10514924;28;20202;-68
2024/01/18 17:10:34;;;;;;;46.80;22.40;;;;;;;;;;10509903;28;20187;-67
2024/01/18 17:15:35;;;;;;;42.37;21.50;;;;;;;;;;10509394;28;20224;-67
2024/01/18 17:20:35;;;;;;;36.60;16.83;;;;;;;;;;10512836;28;20179;-68
2024/01/18 17:25:35;;;;;;;27.15;14.57;;;;;;;;;;10514476;28;20207;-68
2024/01/18 17:30:35;;;;;;;28.97;14.53;;;;;;;;;;10513852;28;20183;-67
2024/01/18 17:35:36;;;;;;;30.13;15.73;;;;;;;;;;10513547;28;20970;-68
2024/01/18 17:40:36;;;;;;;44.10;22.80;;;;;;;;;;10513732;28;20448;-68
2024/01/18 17:45:36;;;;;;;40.60;20.53;;;;;;;;;;10513118;28;20234;-68
2024/01/18 17:50:37;;;;;;;34.27;17.27;;;;;;;;;;10513264;28;20183;-68
2024/01/18 17:55:37;;;;;;;37.47;19.17;;;;;;;;;;10513407;28;20210;-68
2024/01/18 18:00:38;;;;;;;34.13;14.20;;;;;;;;;;10513954;28;20604;-68
2024/01/18 18:05:38;;;;;;;33.17;13.63;;;;;;;;;;10514726;28;20221;-68
2024/01/18 18:10:38;;;;;;;31.87;13.93;;;;;;;;;;10513911;28;20197;-69
2024/01/18 18:15:38;;;;;;;24.27;12.10;;;;;;;;;;10515062;28;20471;-68
2024/01/18 18:20:38;;;;;;;23.30;12.03;;;;;;;;;;10513723;28;20328;-68
2024/01/18 18:25:39;;;;;;;26.07;11.63;;;;;;;;;;10513262;28;20222;-69
2024/01/18 18:30:39;;;;;;;22.90;12.77;;;;;;;;;;10514155;28;20214;-68
2024/01/18 18:35:39;;;;;;;27.90;12.53;;;;;;;;;;10513510;28;20817;-68
2024/01/18 18:40:39;;;;;;;29.87;13.37;;;;;;;;;;10513838;28;20228;-68
2024/01/18 18:45:39;;;;;;;29.07;13.10;;;;;;;;;;10513759;28;20280;-68
2024/01/18 18:50:40;;;;;;;36.37;15.03;;;;;;;;;;10510567;28;20182;-67
2024/01/18 18:55:40;;;;;;;31.07;14.63;;;;;;;;;;10508882;28;20214;-67
2024/01/18 19:00:40;;;;;;;39.60;17.17;;;;;;;;;;10509659;28;20201;-67
2024/01/18 19:05:40;;;;;;;35.90;17.40;;;;;;;;;;10494407;28;20302;-68
2024/01/18 19:10:40;;;;;;;36.40;16.93;;;;;;;;;;10493830;28;20531;-67
2024/01/18 19:15:41;;;;;;;42.33;18.57;;;;;;;;;;10492220;28;20207;-66
2024/01/18 19:20:41;;;;;;;47.63;19.63;;;;;;;;;;10492224;28;20179;-68
2024/01/18 19:25:41;;;;;;;49.47;21.20;;;;;;;;;;10497742;28;20689;-68
2024/01/18 19:30:41;;;;;;;48.70;21.27;;;;;;;;;;10500101;28;20241;-68
2024/01/18 19:35:42;;;;;;;42.23;18.43;;;;;;;;;;10499069;28;20231;-66
2024/01/18 19:40:42;;;;;;;39.53;17.33;;;;;;;;;;10499000;28;20262;-68
2024/01/18 19:45:42;;;;;;;37.97;17.07;;;;;;;;;;10509168;22;20203;-68
2024/01/18 19:50:44;;;;;;;36.57;16.93;;;;;;;;;;10445503;28;20234;-68
2024/01/18 19:55:44;;;;;;;43.80;18.60;;;;;;;;;;10457759;28;20230;-68
2024/01/18 20:00:44;;;;;;;53.60;19.33;;;;;;;;;;10496328;28;20684;-69
2024/01/18 20:05:45;;;;;;;40.60;18.53;;;;;;;;;;10495747;28;20588;-69
2024/01/18 20:10:45;;;;;;;48.53;18.97;;;;;;;;;;10496045;28;20191;-69
2024/01/18 20:15:46;;;;;;;47.20;22.37;;;;;;;;;;10495219;28;20249;-69
2024/01/18 20:20:47;;;;;;;38.03;17.17;;;;;;;;;;10495427;28;20228;-69
2024/01/18 20:25:48;;;;;;;34.23;15.13;;;;;;;;;;10495152;28;20211;-69
2024/01/18 20:30:48;;;;;;;44.77;17.43;;;;;;;;;;10494762;28;20175;-68
2024/01/18 20:35:49;;;;;;;48.53;17.87;;;;;;;;;;10494882;28;20301;-69
2024/01/18 20:40:49;;;;;;;40.60;17.77;;;;;;;;;;10494190;28;20352;-69
2024/01/18 20:45:49;;;;;;;38.93;17.30;;;;;;;;;;10494255;28;20218;-69
2024/01/18 20:50:49;;;;;;;55.30;19.13;;;;;;;;;;10494153;28;20279;-68
2024/01/18 20:55:50;;;;;;;50.30;21.07;;;;;;;;;;10493717;28;20215;-68
2024/01/18 21:00:50;;;;;;;54.07;23.33;;;;;;;;;;10494284;28;20183;-68
2024/01/18 21:05:50;;;;;;;60.03;22.83;;;;;;;;;;10493642;28;20257;-69
2024/01/18 21:10:50;;;;;;;54.07;25.63;;;;;;;;;;10493938;28;20222;-69
2024/01/18 21:15:51;;;;;;;47.87;22.63;;;;;;;;;;10493322;28;20237;-69
2024/01/18 21:20:51;;;;;;;50.27;24.53;;;;;;;;;;10493304;28;20274;-69
2024/01/18 21:25:51;;;;;;;54.40;25.80;;;;;;;;;;10492852;28;20211;-69
2024/01/18 21:30:51;;;;;;;59.03;25.58;;;;;;;;;;10494002;28;20684;-69
2024/01/18 21:35:52;;;;;;;58.50;25.83;;;;;;;;;;10492891;28;20211;-70
2024/01/18 21:40:52;;;;;;;50.30;25.37;;;;;;;;;;10492201;28;20308;-69
2024/01/18 21:45:53;;;;;;;54.90;24.83;;;;;;;;;;10491012;28;20485;-69
2024/01/18 21:50:54;;;;;;;59.07;27.17;;;;;;;;;;10491699;28;20677;-69
2024/01/18 21:55:54;;;;;;;52.67;26.10;;;;;;;;;;10491526;28;20203;-68
2024/01/18 22:00:56;;;;;;;49.67;26.33;;;;;;;;;;10491517;28;20183;-70
2024/01/18 22:05:56;;;;;;;51.80;24.33;;;;;;;;;;10490818;28;20208;-69
2024/01/18 22:10:57;;;;;;;46.33;23.07;;;;;;;;;;10491518;28;20195;-69
2024/01/18 22:15:58;;;;;;;47.27;23.60;;;;;;;;;;10491462;28;20576;-70
2024/01/18 22:20:58;;;;;;;46.47;21.73;;;;;;;;;;10491400;28;20691;-69
2024/01/18 22:25:58;;;;;;;40.27;18.83;;;;;;;;;;10491394;28;20294;-70
2024/01/18 22:30:58;;;;;;;41.40;20.77;;;;;;;;;;10491324;28;20198;-69
2024/01/18 22:36:00;;;;;;;43.33;20.53;;;;;;;;;;10490980;28;20670;-69
2024/01/18 22:41:00;;;;;;;43.47;18.73;;;;;;;;;;10491093;28;20218;-69
2024/01/18 22:46:00;;;;;;;35.93;18.60;;;;;;;;;;10490665;28;20664;-69
2024/01/18 22:51:00;;;;;;;38.23;18.70;;;;;;;;;;10491222;28;20256;-70
2024/01/18 22:56:01;;;;;;;39.63;20.50;;;;;;;;;;10490726;28;20314;-69
2024/01/18 23:01:01;;;;;;;35.57;18.67;;;;;;;;;;10496955;28;20233;-69
2024/01/18 23:06:03;;;;;;;34.97;17.00;;;;;;;;;;10499061;28;20206;-69
2024/01/18 23:11:03;;;;;;;31.23;15.97;;;;;;;;;;10498470;28;20588;-69
2024/01/18 23:16:03;;;;;;;30.20;15.73;;;;;;;;;;10498370;28;20214;-69
2024/01/18 23:21:04;;;;;;;27.80;15.60;;;;;;;;;;10497737;28;20441;-69
2024/01/18 23:26:05;;;;;;;30.73;14.87;;;;;;;;;;10498029;28;20681;-69
2024/01/18 23:31:05;;;;;;;31.10;14.37;;;;;;;;;;10497866;28;20232;-69
2024/01/18 23:36:06;;;;;;;26.57;13.33;;;;;;;;;;10497353;28;20739;-69
2024/01/18 23:41:06;;;;;;;28.57;13.87;;;;;;;;;;10497527;28;20183;-69
2024/01/18 23:46:07;;;;;;;27.20;14.20;;;;;;;;;;10496762;28;20732;-69
2024/01/18 23:51:07;;;;;;;38.27;15.50;;;;;;;;;;10497393;28;20192;-70
2024/01/18 23:56:07;;;;;;;27.33;15.10;;;;;;;;;;10496700;28;20222;-70
